sensor_id;sensor_type;location;lat;lon;timestamp;pressure;altitude;pressure_sealevel;temperature
68911;BMP180;55953;51.650;-0.522;2023-04-25T00:01:11;100685.00;;;5.10
68911;BMP180;55953;51.650;-0.522;2023-04-25T00:03:41;100681.00;;;5.08
68911;BMP180;55953;51.650;-0.522;2023-04-25T00:06:09;100679.60;;;5.00
68911;BMP180;55953;51.650;-0.522;2023-04-25T00:08:37;100682.80;;;5.00
68911;BMP180;55953;51.650;-0.522;2023-04-25T00:11:05;100678.20;;;5.00
68911;BMP180;55953;51.650;-0.522;2023-04-25T00:13:33;100679.00;;;4.90
68911;BMP180;55953;51.650;-0.522;2023-04-25T00:16:01;100677.80;;;4.88
68911;BMP180;55953;51.650;-0.522;2023-04-25T00:18:30;100682.60;;;4.80
68911;BMP180;55953;51.650;-0.522;2023-04-25T00:21:00;100687.60;;;4.72
68911;BMP180;55953;51.650;-0.522;2023-04-25T00:23:28;100676.60;;;4.70
68911;BMP180;55953;51.650;-0.522;2023-04-25T00:25:56;100672.00;;;4.60
68911;BMP180;55953;51.650;-0.522;2023-04-25T00:28:24;100681.80;;;4.60
68911;BMP180;55953;51.650;-0.522;2023-04-25T00:30:52;100676.00;;;4.50
68911;BMP180;55953;51.650;-0.522;2023-04-25T00:33:20;100683.60;;;4.50
68911;BMP180;55953;51.650;-0.522;2023-04-25T00:35:47;100678.40;;;4.42
68911;BMP180;55953;51.650;-0.522;2023-04-25T00:38:15;100678.80;;;4.40
68911;BMP180;55953;51.650;-0.522;2023-04-25T00:40:44;100682.40;;;4.40
68911;BMP180;55953;51.650;-0.522;2023-04-25T00:43:12;100682.60;;;4.30
68911;BMP180;55953;51.650;-0.522;2023-04-25T00:45:40;100687.20;;;4.30
68911;BMP180;55953;51.650;-0.522;2023-04-25T00:48:08;100691.60;;;4.30
68911;BMP180;55953;51.650;-0.522;2023-04-25T00:50:36;100694.80;;;4.22
68911;BMP180;55953;51.650;-0.522;2023-04-25T00:53:04;100691.80;;;4.20
68911;BMP180;55953;51.650;-0.522;2023-04-25T00:55:33;100692.00;;;4.12
68911;BMP180;55953;51.650;-0.522;2023-04-25T00:58:03;100690.20;;;4.10
68911;BMP180;55953;51.650;-0.522;2023-04-25T01:00:31;100699.40;;;4.10
68911;BMP180;55953;51.650;-0.522;2023-04-25T01:03:00;100705.80;;;4.10
68911;BMP180;55953;51.650;-0.522;2023-04-25T01:05:28;100709.60;;;4.10
68911;BMP180;55953;51.650;-0.522;2023-04-25T01:07:56;100708.60;;;4.00
68911;BMP180;55953;51.650;-0.522;2023-04-25T01:10:24;100705.60;;;4.00
68911;BMP180;55953;51.650;-0.522;2023-04-25T01:12:52;100705.00;;;3.96
68911;BMP180;55953;51.650;-0.522;2023-04-25T01:15:20;100706.00;;;3.92
68911;BMP180;55953;51.650;-0.522;2023-04-25T01:17:49;100711.20;;;3.90
68911;BMP180;55953;51.650;-0.522;2023-04-25T01:20:17;100707.60;;;3.90
68911;BMP180;55953;51.650;-0.522;2023-04-25T01:22:45;100708.20;;;3.90
68911;BMP180;55953;51.650;-0.522;2023-04-25T01:25:14;100708.20;;;3.82
68911;BMP180;55953;51.650;-0.522;2023-04-25T01:27:42;100710.60;;;3.80
68911;BMP180;55953;51.650;-0.522;2023-04-25T01:30:11;100715.00;;;3.80
68911;BMP180;55953;51.650;-0.522;2023-04-25T01:32:42;100715.80;;;3.70
68911;BMP180;55953;51.650;-0.522;2023-04-25T01:35:11;100719.80;;;3.70
68911;BMP180;55953;51.650;-0.522;2023-04-25T01:37:43;100721.60;;;3.70
68911;BMP180;55953;51.650;-0.522;2023-04-25T01:40:13;100720.00;;;3.70
68911;BMP180;55953;51.650;-0.522;2023-04-25T01:42:43;100722.80;;;3.60
68911;BMP180;55953;51.650;-0.522;2023-04-25T01:45:12;100726.60;;;3.60
68911;BMP180;55953;51.650;-0.522;2023-04-25T01:47:40;100725.80;;;3.60
68911;BMP180;55953;51.650;-0.522;2023-04-25T01:50:10;100729.80;;;3.60
68911;BMP180;55953;51.650;-0.522;2023-04-25T01:52:39;100737.00;;;3.58
68911;BMP180;55953;51.650;-0.522;2023-04-25T01:55:08;100742.60;;;3.50
68911;BMP180;55953;51.650;-0.522;2023-04-25T01:57:38;100736.80;;;3.50
68911;BMP180;55953;51.650;-0.522;2023-04-25T02:00:08;100735.40;;;3.50
68911;BMP180;55953;51.650;-0.522;2023-04-25T02:02:39;100737.60;;;3.50
68911;BMP180;55953;51.650;-0.522;2023-04-25T02:05:25;100738.60;;;3.48
68911;BMP180;55953;51.650;-0.522;2023-04-25T02:07:53;100736.20;;;3.48
68911;BMP180;55953;51.650;-0.522;2023-04-25T02:10:21;100731.40;;;3.40
68911;BMP180;55953;51.650;-0.522;2023-04-25T02:12:57;100730.40;;;3.40
68911;BMP180;55953;51.650;-0.522;2023-04-25T02:15:40;100725.80;;;3.40
68911;BMP180;55953;51.650;-0.522;2023-04-25T02:18:16;100728.80;;;3.40
68911;BMP180;55953;51.650;-0.522;2023-04-25T02:20:45;100726.60;;;3.30
68911;BMP180;55953;51.650;-0.522;2023-04-25T02:23:13;100727.00;;;3.30
68911;BMP180;55953;51.650;-0.522;2023-04-25T02:25:43;100726.60;;;3.30
68911;BMP180;55953;51.650;-0.522;2023-04-25T02:28:11;100727.40;;;3.20
68911;BMP180;55953;51.650;-0.522;2023-04-25T02:30:39;100724.00;;;3.20
68911;BMP180;55953;51.650;-0.522;2023-04-25T02:33:06;100723.40;;;3.20
68911;BMP180;55953;51.650;-0.522;2023-04-25T02:35:36;100722.40;;;3.24
68911;BMP180;55953;51.650;-0.522;2023-04-25T02:38:03;100722.60;;;3.30
68911;BMP180;55953;51.650;-0.522;2023-04-25T02:40:33;100727.80;;;3.30
68911;BMP180;55953;51.650;-0.522;2023-04-25T02:43:01;100723.00;;;3.40
68911;BMP180;55953;51.650;-0.522;2023-04-25T02:45:28;100725.40;;;3.40
68911;BMP180;55953;51.650;-0.522;2023-04-25T02:47:56;100729.40;;;3.40
68911;BMP180;55953;51.650;-0.522;2023-04-25T02:50:24;100725.60;;;3.40
68911;BMP180;55953;51.650;-0.522;2023-04-25T02:52:52;100738.20;;;3.40
68911;BMP180;55953;51.650;-0.522;2023-04-25T02:55:24;100737.40;;;3.32
68911;BMP180;55953;51.650;-0.522;2023-04-25T02:57:55;100740.40;;;3.30
68911;BMP180;55953;51.650;-0.522;2023-04-25T03:00:34;100742.60;;;3.30
68911;BMP180;55953;51.650;-0.522;2023-04-25T03:03:02;100748.20;;;3.30
68911;BMP180;55953;51.650;-0.522;2023-04-25T03:05:30;100750.20;;;3.20
68911;BMP180;55953;51.650;-0.522;2023-04-25T03:07:59;100747.80;;;3.20
68911;BMP180;55953;51.650;-0.522;2023-04-25T03:10:27;100741.20;;;3.20
68911;BMP180;55953;51.650;-0.522;2023-04-25T03:12:56;100736.20;;;3.10
68911;BMP180;55953;51.650;-0.522;2023-04-25T03:15:25;100737.40;;;3.10
68911;BMP180;55953;51.650;-0.522;2023-04-25T03:17:53;100740.80;;;3.10
68911;BMP180;55953;51.650;-0.522;2023-04-25T03:20:21;100744.40;;;3.00
68911;BMP180;55953;51.650;-0.522;2023-04-25T03:22:49;100745.60;;;3.00
68911;BMP180;55953;51.650;-0.522;2023-04-25T03:25:18;100750.40;;;2.98
68911;BMP180;55953;51.650;-0.522;2023-04-25T03:27:46;100752.40;;;2.90
68911;BMP180;55953;51.650;-0.522;2023-04-25T03:30:14;100751.60;;;2.90
68911;BMP180;55953;51.650;-0.522;2023-04-25T03:32:43;100755.00;;;2.90
68911;BMP180;55953;51.650;-0.522;2023-04-25T03:35:14;100755.80;;;2.88
68911;BMP180;55953;51.650;-0.522;2023-04-25T03:37:42;100759.00;;;2.88
68911;BMP180;55953;51.650;-0.522;2023-04-25T03:40:16;100755.80;;;2.82
68911;BMP180;55953;51.650;-0.522;2023-04-25T03:43:10;100761.60;;;2.82
68911;BMP180;55953;51.650;-0.522;2023-04-25T03:45:41;100771.60;;;2.80
68911;BMP180;55953;51.650;-0.522;2023-04-25T03:48:09;100765.40;;;2.80
68911;BMP180;55953;51.650;-0.522;2023-04-25T03:50:37;100764.80;;;2.80
68911;BMP180;55953;51.650;-0.522;2023-04-25T03:53:04;100765.20;;;2.80
68911;BMP180;55953;51.650;-0.522;2023-04-25T03:55:46;100772.60;;;2.80
68911;BMP180;55953;51.650;-0.522;2023-04-25T03:58:14;100777.60;;;2.80
68911;BMP180;55953;51.650;-0.522;2023-04-25T04:00:42;100783.40;;;2.80
68911;BMP180;55953;51.650;-0.522;2023-04-25T04:03:09;100788.80;;;2.80
68911;BMP180;55953;51.650;-0.522;2023-04-25T04:05:38;100794.00;;;2.80
68911;BMP180;55953;51.650;-0.522;2023-04-25T04:08:09;100790.80;;;2.80
68911;BMP180;55953;51.650;-0.522;2023-04-25T04:10:38;100793.80;;;2.80
68911;BMP180;55953;51.650;-0.522;2023-04-25T04:13:06;100788.00;;;2.80
68911;BMP180;55953;51.650;-0.522;2023-04-25T04:15:34;100788.20;;;2.80
68911;BMP180;55953;51.650;-0.522;2023-04-25T04:18:02;100792.80;;;2.70
68911;BMP180;55953;51.650;-0.522;2023-04-25T04:20:30;100802.00;;;2.70
68911;BMP180;55953;51.650;-0.522;2023-04-25T04:22:59;100803.40;;;2.70
68911;BMP180;55953;51.650;-0.522;2023-04-25T04:25:27;100809.80;;;2.70
68911;BMP180;55953;51.650;-0.522;2023-04-25T04:28:33;100817.00;;;2.70
68911;BMP180;55953;51.650;-0.522;2023-04-25T04:31:06;100829.40;;;2.70
68911;BMP180;55953;51.650;-0.522;2023-04-25T04:33:35;100828.20;;;2.70
68911;BMP180;55953;51.650;-0.522;2023-04-25T04:36:05;100828.40;;;2.68
68911;BMP180;55953;51.650;-0.522;2023-04-25T04:38:35;100833.80;;;2.60
68911;BMP180;55953;51.650;-0.522;2023-04-25T04:41:06;100839.20;;;2.60
68911;BMP180;55953;51.650;-0.522;2023-04-25T04:43:48;100830.60;;;2.60
68911;BMP180;55953;51.650;-0.522;2023-04-25T04:46:30;100828.40;;;2.60
68911;BMP180;55953;51.650;-0.522;2023-04-25T04:49:12;100831.40;;;2.58
68911;BMP180;55953;51.650;-0.522;2023-04-25T04:51:49;100832.00;;;2.56
68911;BMP180;55953;51.650;-0.522;2023-04-25T04:54:50;100825.60;;;2.50
68911;BMP180;55953;51.650;-0.522;2023-04-25T04:57:34;100831.80;;;2.50
68911;BMP180;55953;51.650;-0.522;2023-04-25T05:00:15;100834.00;;;2.50
68911;BMP180;55953;51.650;-0.522;2023-04-25T05:03:02;100847.40;;;2.50
68911;BMP180;55953;51.650;-0.522;2023-04-25T05:05:41;100848.40;;;2.50
68911;BMP180;55953;51.650;-0.522;2023-04-25T05:08:27;100855.80;;;2.50
68911;BMP180;55953;51.650;-0.522;2023-04-25T05:11:10;100859.00;;;2.50
68911;BMP180;55953;51.650;-0.522;2023-04-25T05:13:59;100862.80;;;2.50
68911;BMP180;55953;51.650;-0.522;2023-04-25T05:16:45;100871.80;;;2.50
68911;BMP180;55953;51.650;-0.522;2023-04-25T05:19:48;100876.80;;;2.50
68911;BMP180;55953;51.650;-0.522;2023-04-25T05:22:35;100880.80;;;2.50
68911;BMP180;55953;51.650;-0.522;2023-04-25T05:25:22;100886.40;;;2.52
68911;BMP180;55953;51.650;-0.522;2023-04-25T05:27:57;100898.40;;;2.60
68911;BMP180;55953;51.650;-0.522;2023-04-25T05:30:40;100902.60;;;2.60
68911;BMP180;55953;51.650;-0.522;2023-04-25T05:33:20;100902.40;;;2.60
68911;BMP180;55953;51.650;-0.522;2023-04-25T05:35:48;100907.20;;;2.70
68911;BMP180;55953;51.650;-0.522;2023-04-25T05:38:16;100902.80;;;2.70
68911;BMP180;55953;51.650;-0.522;2023-04-25T05:41:03;100902.40;;;2.76
68911;BMP180;55953;51.650;-0.522;2023-04-25T05:43:41;100902.40;;;2.80
68911;BMP180;55953;51.650;-0.522;2023-04-25T05:46:36;100904.00;;;2.90
68911;BMP180;55953;51.650;-0.522;2023-04-25T05:49:19;100908.20;;;2.90
68911;BMP180;55953;51.650;-0.522;2023-04-25T05:52:13;100915.80;;;3.00
68911;BMP180;55953;51.650;-0.522;2023-04-25T05:54:49;100915.00;;;3.00
68911;BMP180;55953;51.650;-0.522;2023-04-25T05:57:25;100913.60;;;3.02
68911;BMP180;55953;51.650;-0.522;2023-04-25T05:59:54;100911.80;;;3.10
68911;BMP180;55953;51.650;-0.522;2023-04-25T06:02:23;100904.20;;;3.20
68911;BMP180;55953;51.650;-0.522;2023-04-25T06:04:53;100909.00;;;3.26
68911;BMP180;55953;51.650;-0.522;2023-04-25T06:07:22;100915.60;;;3.32
68911;BMP180;55953;51.650;-0.522;2023-04-25T06:09:50;100909.40;;;3.50
68911;BMP180;55953;51.650;-0.522;2023-04-25T06:12:18;100916.00;;;3.70
68911;BMP180;55953;51.650;-0.522;2023-04-25T06:14:47;100915.00;;;3.70
68911;BMP180;55953;51.650;-0.522;2023-04-25T06:17:15;100908.40;;;3.82
68911;BMP180;55953;51.650;-0.522;2023-04-25T06:19:43;100899.00;;;4.10
68911;BMP180;55953;51.650;-0.522;2023-04-25T06:22:12;100900.20;;;4.50
68911;BMP180;55953;51.650;-0.522;2023-04-25T06:24:40;100901.60;;;4.86
68911;BMP180;55953;51.650;-0.522;2023-04-25T06:27:08;100908.00;;;5.22
68911;BMP180;55953;51.650;-0.522;2023-04-25T06:29:36;100919.20;;;5.52
68911;BMP180;55953;51.650;-0.522;2023-04-25T06:32:05;100925.40;;;5.50
68911;BMP180;55953;51.650;-0.522;2023-04-25T06:34:34;100925.40;;;5.40
68911;BMP180;55953;51.650;-0.522;2023-04-25T06:37:02;100925.20;;;5.50
68911;BMP180;55953;51.650;-0.522;2023-04-25T06:39:30;100932.20;;;5.50
68911;BMP180;55953;51.650;-0.522;2023-04-25T06:41:58;100930.40;;;5.54
68911;BMP180;55953;51.650;-0.522;2023-04-25T06:44:44;100926.40;;;5.82
68911;BMP180;55953;51.650;-0.522;2023-04-25T06:47:14;100923.00;;;6.06
68911;BMP180;55953;51.650;-0.522;2023-04-25T06:49:42;100922.20;;;6.36
68911;BMP180;55953;51.650;-0.522;2023-04-25T06:52:10;100913.40;;;6.68
68911;BMP180;55953;51.650;-0.522;2023-04-25T06:54:38;100920.40;;;6.62
68911;BMP180;55953;51.650;-0.522;2023-04-25T06:57:18;100920.40;;;6.60
68911;BMP180;55953;51.650;-0.522;2023-04-25T06:59:46;100925.40;;;6.50
68911;BMP180;55953;51.650;-0.522;2023-04-25T07:02:14;100925.80;;;6.44
68911;BMP180;55953;51.650;-0.522;2023-04-25T07:04:42;100930.60;;;6.30
68911;BMP180;55953;51.650;-0.522;2023-04-25T07:07:11;100928.40;;;6.44
68911;BMP180;55953;51.650;-0.522;2023-04-25T07:09:46;100938.00;;;6.50
68911;BMP180;55953;51.650;-0.522;2023-04-25T07:12:15;100935.40;;;6.50
68911;BMP180;55953;51.650;-0.522;2023-04-25T07:14:43;100936.20;;;6.40
68911;BMP180;55953;51.650;-0.522;2023-04-25T07:17:11;100947.20;;;6.40
68911;BMP180;55953;51.650;-0.522;2023-04-25T07:19:39;100952.60;;;6.40
68911;BMP180;55953;51.650;-0.522;2023-04-25T07:22:08;100951.60;;;6.34
68911;BMP180;55953;51.650;-0.522;2023-04-25T07:24:36;100957.40;;;6.30
68911;BMP180;55953;51.650;-0.522;2023-04-25T07:27:05;100959.40;;;6.36
68911;BMP180;55953;51.650;-0.522;2023-04-25T07:29:45;100960.00;;;6.30
68911;BMP180;55953;51.650;-0.522;2023-04-25T07:32:14;100964.60;;;6.30
68911;BMP180;55953;51.650;-0.522;2023-04-25T07:34:42;100968.20;;;6.30
68911;BMP180;55953;51.650;-0.522;2023-04-25T07:37:10;100961.80;;;6.50
68911;BMP180;55953;51.650;-0.522;2023-04-25T07:39:49;100963.20;;;6.60
68911;BMP180;55953;51.650;-0.522;2023-04-25T07:42:17;100964.20;;;6.80
68911;BMP180;55953;51.650;-0.522;2023-04-25T07:44:45;100969.20;;;6.80
68911;BMP180;55953;51.650;-0.522;2023-04-25T07:47:13;100976.60;;;6.70
68911;BMP180;55953;51.650;-0.522;2023-04-25T07:49:42;100975.60;;;6.70
68911;BMP180;55953;51.650;-0.522;2023-04-25T07:52:09;100978.80;;;6.70
68911;BMP180;55953;51.650;-0.522;2023-04-25T07:54:38;100980.80;;;6.76
68911;BMP180;55953;51.650;-0.522;2023-04-25T07:57:12;100973.20;;;6.78
68911;BMP180;55953;51.650;-0.522;2023-04-25T07:59:41;100971.80;;;6.90
68911;BMP180;55953;51.650;-0.522;2023-04-25T08:02:09;100981.80;;;6.92
68911;BMP180;55953;51.650;-0.522;2023-04-25T08:04:38;100981.60;;;7.00
68911;BMP180;55953;51.650;-0.522;2023-04-25T08:07:09;100987.80;;;7.20
68911;BMP180;55953;51.650;-0.522;2023-04-25T08:09:49;100986.80;;;7.40
68911;BMP180;55953;51.650;-0.522;2023-04-25T08:12:27;100992.00;;;7.60
68911;BMP180;55953;51.650;-0.522;2023-04-25T08:14:56;100991.80;;;7.74
68911;BMP180;55953;51.650;-0.522;2023-04-25T08:17:24;100996.60;;;7.90
68911;BMP180;55953;51.650;-0.522;2023-04-25T08:19:52;101002.00;;;8.10
68911;BMP180;55953;51.650;-0.522;2023-04-25T08:22:24;100997.00;;;8.22
68911;BMP180;55953;51.650;-0.522;2023-04-25T08:25:10;100999.00;;;8.40
68911;BMP180;55953;51.650;-0.522;2023-04-25T08:27:39;100995.80;;;8.32
68911;BMP180;55953;51.650;-0.522;2023-04-25T08:30:07;100999.60;;;8.50
68911;BMP180;55953;51.650;-0.522;2023-04-25T08:32:37;100997.40;;;8.60
68911;BMP180;55953;51.650;-0.522;2023-04-25T08:35:16;101003.00;;;8.50
68911;BMP180;55953;51.650;-0.522;2023-04-25T08:37:45;100998.40;;;8.30
68911;BMP180;55953;51.650;-0.522;2023-04-25T08:40:15;100996.60;;;8.50
68911;BMP180;55953;51.650;-0.522;2023-04-25T08:43:07;101000.00;;;8.50
68911;BMP180;55953;51.650;-0.522;2023-04-25T08:45:41;101007.60;;;8.36
68911;BMP180;55953;51.650;-0.522;2023-04-25T08:48:16;101000.60;;;8.30
68911;BMP180;55953;51.650;-0.522;2023-04-25T08:50:56;101000.80;;;8.34
68911;BMP180;55953;51.650;-0.522;2023-04-25T08:53:31;100996.60;;;8.50
68911;BMP180;55953;51.650;-0.522;2023-04-25T08:56:02;100994.60;;;8.70
68911;BMP180;55953;51.650;-0.522;2023-04-25T08:58:35;100996.00;;;8.80
68911;BMP180;55953;51.650;-0.522;2023-04-25T09:01:04;100991.20;;;8.90
68911;BMP180;55953;51.650;-0.522;2023-04-25T09:03:37;100987.20;;;8.90
68911;BMP180;55953;51.650;-0.522;2023-04-25T09:06:05;100995.80;;;8.86
68911;BMP180;55953;51.650;-0.522;2023-04-25T09:08:36;100993.20;;;8.70
68911;BMP180;55953;51.650;-0.522;2023-04-25T09:11:04;100993.20;;;8.80
68911;BMP180;55953;51.650;-0.522;2023-04-25T09:13:33;100986.20;;;9.00
68911;BMP180;55953;51.650;-0.522;2023-04-25T09:16:20;100992.20;;;9.26
68911;BMP180;55953;51.650;-0.522;2023-04-25T09:19:05;100988.20;;;9.56
68911;BMP180;55953;51.650;-0.522;2023-04-25T09:21:34;100990.00;;;9.58
68911;BMP180;55953;51.650;-0.522;2023-04-25T09:24:03;100984.00;;;9.40
68911;BMP180;55953;51.650;-0.522;2023-04-25T09:26:31;100986.20;;;9.50
68911;BMP180;55953;51.650;-0.522;2023-04-25T09:29:07;100987.20;;;9.44
68911;BMP180;55953;51.650;-0.522;2023-04-25T09:31:37;100990.80;;;9.50
68911;BMP180;55953;51.650;-0.522;2023-04-25T09:34:06;100986.80;;;9.50
68911;BMP180;55953;51.650;-0.522;2023-04-25T09:36:41;100990.20;;;9.76
68911;BMP180;55953;51.650;-0.522;2023-04-25T09:39:33;100989.60;;;9.90
68911;BMP180;55953;51.650;-0.522;2023-04-25T09:42:10;100981.00;;;9.88
68911;BMP180;55953;51.650;-0.522;2023-04-25T09:44:43;100982.00;;;10.08
68911;BMP180;55953;51.650;-0.522;2023-04-25T09:47:14;100980.20;;;10.40
68911;BMP180;55953;51.650;-0.522;2023-04-25T09:49:45;100979.40;;;10.40
68911;BMP180;55953;51.650;-0.522;2023-04-25T09:52:24;100978.80;;;10.50
68911;BMP180;55953;51.650;-0.522;2023-04-25T09:55:15;100978.80;;;10.88
68911;BMP180;55953;51.650;-0.522;2023-04-25T09:57:48;100978.60;;;10.90
68911;BMP180;55953;51.650;-0.522;2023-04-25T10:00:19;100981.40;;;11.00
68911;BMP180;55953;51.650;-0.522;2023-04-25T10:02:50;100974.00;;;10.90
68911;BMP180;55953;51.650;-0.522;2023-04-25T10:05:41;100969.00;;;11.20
68911;BMP180;55953;51.650;-0.522;2023-04-25T10:08:12;100974.80;;;11.20
68911;BMP180;55953;51.650;-0.522;2023-04-25T10:10:41;100975.40;;;11.30
68911;BMP180;55953;51.650;-0.522;2023-04-25T10:13:09;100979.60;;;11.22
68911;BMP180;55953;51.650;-0.522;2023-04-25T10:15:37;100985.20;;;10.82
68911;BMP180;55953;51.650;-0.522;2023-04-25T10:18:07;100983.40;;;10.90
68911;BMP180;55953;51.650;-0.522;2023-04-25T10:20:35;100988.00;;;11.00
68911;BMP180;55953;51.650;-0.522;2023-04-25T10:23:13;100983.60;;;11.10
68911;BMP180;55953;51.650;-0.522;2023-04-25T10:25:43;100985.00;;;11.20
68911;BMP180;55953;51.650;-0.522;2023-04-25T10:28:11;100984.80;;;11.20
68911;BMP180;55953;51.650;-0.522;2023-04-25T10:31:00;100981.40;;;11.38
68911;BMP180;55953;51.650;-0.522;2023-04-25T10:36:21;100979.20;;;11.60
68911;BMP180;55953;51.650;-0.522;2023-04-25T10:38:52;100987.40;;;11.70
68911;BMP180;55953;51.650;-0.522;2023-04-25T10:41:21;100986.60;;;11.70
68911;BMP180;55953;51.650;-0.522;2023-04-25T10:43:59;100992.60;;;11.40
68911;BMP180;55953;51.650;-0.522;2023-04-25T10:46:29;100996.20;;;11.30
68911;BMP180;55953;51.650;-0.522;2023-04-25T10:49:02;100996.60;;;11.32
68911;BMP180;55953;51.650;-0.522;2023-04-25T10:51:32;100992.20;;;11.68
68911;BMP180;55953;51.650;-0.522;2023-04-25T10:54:22;100986.00;;;12.14
68911;BMP180;55953;51.650;-0.522;2023-04-25T10:56:53;100983.80;;;12.50
68911;BMP180;55953;51.650;-0.522;2023-04-25T10:59:24;100981.40;;;12.50
68911;BMP180;55953;51.650;-0.522;2023-04-25T11:01:53;100979.60;;;12.14
68911;BMP180;55953;51.650;-0.522;2023-04-25T11:04:32;100986.80;;;12.00
68911;BMP180;55953;51.650;-0.522;2023-04-25T11:07:37;100979.80;;;12.20
68911;BMP180;55953;51.650;-0.522;2023-04-25T11:10:06;100982.60;;;12.30
68911;BMP180;55953;51.650;-0.522;2023-04-25T11:12:34;100980.00;;;12.48
68911;BMP180;55953;51.650;-0.522;2023-04-25T11:15:07;100980.80;;;12.60
68911;BMP180;55953;51.650;-0.522;2023-04-25T11:17:35;100984.40;;;12.60
68911;BMP180;55953;51.650;-0.522;2023-04-25T11:20:04;100982.00;;;12.60
68911;BMP180;55953;51.650;-0.522;2023-04-25T11:22:38;100982.00;;;12.74
68911;BMP180;55953;51.650;-0.522;2023-04-25T11:25:10;100982.40;;;12.80
68911;BMP180;55953;51.650;-0.522;2023-04-25T11:27:58;100983.40;;;12.70
68911;BMP180;55953;51.650;-0.522;2023-04-25T11:30:29;100977.40;;;12.70
68911;BMP180;55953;51.650;-0.522;2023-04-25T11:32:58;100981.60;;;13.00
68911;BMP180;55953;51.650;-0.522;2023-04-25T11:35:26;100977.80;;;13.20
68911;BMP180;55953;51.650;-0.522;2023-04-25T11:37:54;100975.40;;;13.50
68911;BMP180;55953;51.650;-0.522;2023-04-25T11:40:22;100973.80;;;13.68
68911;BMP180;55953;51.650;-0.522;2023-04-25T11:42:50;100969.00;;;13.80
68911;BMP180;55953;51.650;-0.522;2023-04-25T11:45:23;100979.60;;;13.90
68911;BMP180;55953;51.650;-0.522;2023-04-25T11:47:51;100979.60;;;13.70
68911;BMP180;55953;51.650;-0.522;2023-04-25T11:50:19;100988.00;;;13.24
68911;BMP180;55953;51.650;-0.522;2023-04-25T11:52:48;100983.00;;;13.10
68911;BMP180;55953;51.650;-0.522;2023-04-25T11:55:19;100989.40;;;12.80
68911;BMP180;55953;51.650;-0.522;2023-04-25T11:57:49;100984.40;;;12.80
68911;BMP180;55953;51.650;-0.522;2023-04-25T12:00:22;100984.40;;;12.80
68911;BMP180;55953;51.650;-0.522;2023-04-25T12:02:55;100985.80;;;12.30
68911;BMP180;55953;51.650;-0.522;2023-04-25T12:05:31;100984.60;;;12.20
68911;BMP180;55953;51.650;-0.522;2023-04-25T12:08:15;100987.00;;;12.18
68911;BMP180;55953;51.650;-0.522;2023-04-25T12:10:45;100991.40;;;11.94
68911;BMP180;55953;51.650;-0.522;2023-04-25T12:13:25;100994.60;;;11.80
68911;BMP180;55953;51.650;-0.522;2023-04-25T12:15:56;100992.60;;;11.96
68911;BMP180;55953;51.650;-0.522;2023-04-25T12:18:25;100990.00;;;12.32
68911;BMP180;55953;51.650;-0.522;2023-04-25T12:20:55;100992.40;;;12.60
68911;BMP180;55953;51.650;-0.522;2023-04-25T12:23:27;100988.20;;;12.80
68911;BMP180;55953;51.650;-0.522;2023-04-25T12:25:56;100995.00;;;12.76
68911;BMP180;55953;51.650;-0.522;2023-04-25T12:28:24;100996.20;;;12.32
68911;BMP180;55953;51.650;-0.522;2023-04-25T12:31:00;100996.80;;;12.30
68911;BMP180;55953;51.650;-0.522;2023-04-25T12:33:33;100999.60;;;12.22
68911;BMP180;55953;51.650;-0.522;2023-04-25T12:36:04;101003.60;;;12.20
68911;BMP180;55953;51.650;-0.522;2023-04-25T12:38:41;101005.40;;;12.10
68911;BMP180;55953;51.650;-0.522;2023-04-25T12:41:09;101003.60;;;12.20
68911;BMP180;55953;51.650;-0.522;2023-04-25T12:43:37;101008.00;;;12.30
68911;BMP180;55953;51.650;-0.522;2023-04-25T12:46:05;101006.60;;;12.30
68911;BMP180;55953;51.650;-0.522;2023-04-25T12:48:33;101006.20;;;12.30
68911;BMP180;55953;51.650;-0.522;2023-04-25T12:51:01;101006.00;;;12.50
68911;BMP180;55953;51.650;-0.522;2023-04-25T12:53:29;101012.00;;;12.50
68911;BMP180;55953;51.650;-0.522;2023-04-25T12:55:57;101008.00;;;12.58
68911;BMP180;55953;51.650;-0.522;2023-04-25T12:58:25;101004.80;;;12.90
68911;BMP180;55953;51.650;-0.522;2023-04-25T13:00:53;101001.00;;;13.20
68911;BMP180;55953;51.650;-0.522;2023-04-25T13:03:21;100994.00;;;13.50
68911;BMP180;55953;51.650;-0.522;2023-04-25T13:05:50;100996.60;;;13.80
68911;BMP180;55953;51.650;-0.522;2023-04-25T13:08:20;100997.00;;;13.30
68911;BMP180;55953;51.650;-0.522;2023-04-25T13:10:48;101007.20;;;13.00
68911;BMP180;55953;51.650;-0.522;2023-04-25T13:13:16;101005.80;;;12.76
68911;BMP180;55953;51.650;-0.522;2023-04-25T13:15:44;101011.00;;;12.50
68911;BMP180;55953;51.650;-0.522;2023-04-25T13:18:12;101008.20;;;12.40
68911;BMP180;55953;51.650;-0.522;2023-04-25T13:20:40;101014.00;;;12.40
68911;BMP180;55953;51.650;-0.522;2023-04-25T13:23:08;101009.60;;;12.60
68911;BMP180;55953;51.650;-0.522;2023-04-25T13:25:35;101006.40;;;12.88
68911;BMP180;55953;51.650;-0.522;2023-04-25T13:28:03;101006.80;;;13.32
68911;BMP180;55953;51.650;-0.522;2023-04-25T13:30:32;101008.80;;;13.74
68911;BMP180;55953;51.650;-0.522;2023-04-25T13:33:00;101001.20;;;14.06
68911;BMP180;55953;51.650;-0.522;2023-04-25T13:35:33;101000.20;;;14.40
68911;BMP180;55953;51.650;-0.522;2023-04-25T13:38:02;101009.40;;;14.36
68911;BMP180;55953;51.650;-0.522;2023-04-25T13:40:30;101012.40;;;14.40
68911;BMP180;55953;51.650;-0.522;2023-04-25T13:43:01;101014.60;;;14.30
68911;BMP180;55953;51.650;-0.522;2023-04-25T13:45:29;101015.40;;;14.20
68911;BMP180;55953;51.650;-0.522;2023-04-25T13:48:00;101010.00;;;14.18
68911;BMP180;55953;51.650;-0.522;2023-04-25T13:50:28;101017.40;;;14.04
68911;BMP180;55953;51.650;-0.522;2023-04-25T13:52:56;101020.80;;;13.70
68911;BMP180;55953;51.650;-0.522;2023-04-25T13:55:25;101016.80;;;13.46
68911;BMP180;55953;51.650;-0.522;2023-04-25T13:57:53;101018.20;;;13.20
68911;BMP180;55953;51.650;-0.522;2023-04-25T14:00:21;101013.20;;;13.10
68911;BMP180;55953;51.650;-0.522;2023-04-25T14:02:49;101012.00;;;13.14
68911;BMP180;55953;51.650;-0.522;2023-04-25T14:05:17;101014.80;;;12.90
68911;BMP180;55953;51.650;-0.522;2023-04-25T14:07:45;101007.20;;;12.96
68911;BMP180;55953;51.650;-0.522;2023-04-25T14:10:13;101002.20;;;13.20
68911;BMP180;55953;51.650;-0.522;2023-04-25T14:12:41;101001.60;;;13.44
68911;BMP180;55953;51.650;-0.522;2023-04-25T14:15:09;100999.60;;;13.68
68911;BMP180;55953;51.650;-0.522;2023-04-25T14:17:38;101001.60;;;13.80
68911;BMP180;55953;51.650;-0.522;2023-04-25T14:20:08;101003.40;;;13.94